Aviation Digital Data Service (ADDS)

Output produced by METARs form (1103 UTC 30 April 2017)
found at http://www.aviationweather.gov/adds/metars/
 
DAUA 301000Z 31010KT 7000 NSC 34/01 Q1013
TAF DAUA 300500Z 3006/0106 30014KT 8000 FEW046 SCT100 
     PROB30 
     TEMPO 3006/3010 30015G25KT 3000 DRSA FEW040CB 
     BECMG 3012/3015 24015KT 
     PROB40 
     TEMPO 3018/3024 24015G25KT 5000 -TSRA FEW040CB
       
DABB 301000Z 04006KT 010V070 9999 FEW026 19/12 Q1014
TAF COR DABB 300800Z 3006/0106 12004KT 9999 FEW020 SCT033 
     BECMG 3012/3014 04012KT 
     PROB40 
     TEMPO 3013/3019 FEW026CB 
     PROB30 
     TEMPO 3014/3018 5000 -TSRA
       
DABT 301000Z 33009KT 9999 SCT023 21/11 Q1016
TAF COR DABT 300800Z 3006/0106 36012KT 9999 FEW020 SCT033 
     BECMG 3012/3014 33012KT 
     TEMPO 3013/3019 FEW026CB 
     TEMPO 3014/3018 5000 -TSRA
       
DAOR 301000Z 08006KT CAVOK 25/08 Q1017
TAF DAOR 300800Z 3009/3018 01012KT CAVOK
       
DAAE 301000Z 09008KT 9999 FEW020 20/15 Q1015
TAF COR DAAE 300800Z 3006/0106 11005KT 9999 FEW020 SCT033 
     BECMG 3012/3014 35012KT 
     PROB40 
     TEMPO 3013/3019 FEW026CB 
     PROB30 
     TEMPO 3014/3018 5000 -TSRA
       
DAUB 301000Z 14007KT 9999 FEW040 SCT200 25/13 Q1015
TAF COR DAUB 300800Z 3006/0106 28005KT 9999 SCT020 BKN033 
     BECMG 3012/3014 34012KT 
     TEMPO 3013/3019 FEW026CB
       
DATM 301000Z 03034KT 0800 SS VV/// 37/03 Q1012
TAF DATM 300800Z 3009/3018 02020KT 3000 DRSA NSC 
     TEMPO 3009/3013 02025G35KT 0600 BLSA
       
DAAD 301000Z 35008KT 9999 FEW033 25/08 Q1016
TAF DAAD 300800Z 3009/3018 29012KT 9999 FEW033 SCT100 
     PROB30 
     TEMPO 3009/3012 FEW030TCU
       
DAOI 301000Z 22010KT 9999 SCT026 SCT100 19/15 Q1016
TAF DAOI 300500Z 3006/0106 VRB02KT 9999 FEW026 
     PROB30 
     TEMPO 3006/3014 -TSRA SCT030 FEW030CB SCT100 
     BECMG 3009/3012 27014KT 
     BECMG 3020/3023 VRB02KT
       
DABC 301000Z 32003KT 9999 BKN026TCU 21/13 Q1016
TAF AMD DABC 301030Z 3006/0106 25004KT 9999 FEW023TCU SCT033 
     BECMG 3012/3014 33012KT 
     TEMPO 3013/3019 FEW026CB 
     PROB40 
     TEMPO 3014/3018 5000 -TSRA
       
DAAG 301000Z 36009KT 330V030 9999 FEW026 SCT040 21/15 Q1016
TAF DAAG 300500Z 3006/0106 VRB02KT 9999 FEW020 SCT080 
     BECMG 3007/3010 32014KT 
     PROB40 
     TEMPO 3008/3015 FEW023TCU 
     BECMG 3017/3020 VRB02KT 
     BECMG 0103/0106 30012KT
       
DAAJ 301000Z 10008KT CAVOK 36/06 Q1020
TAF DAAJ 300500Z 3006/0106 06010KT 8000 NSC 
     PROB30 
     TEMPO 3006/3010 VRB02KT 3000 HZ 
     BECMG 3010/3012 18010KT 
     BECMG 3021/3024 06010KT
       
DAUE 301000Z 03004KT CAVOK 29/07 Q1014
DAUO 301000Z 11006KT 8000 FEW040 SCT233 24/13 Q1013
TAF DAUO 300800Z 3009/3018 05012KT 8000 FEW040 
     PROB30 
     TEMPO 3006/3009 3000 HZ
       
DAUG 301000Z 08015KT CAVOK 26/07 Q1015
TAF DAUG 300500Z 3006/0106 05012KT 9999 FEW046 SCT100 
     PROB30 
     TEMPO 06015G25KT 3006/3010 3000 DRSA FEW040CB
       
DAUH 301000Z 35011KT 4000 HZ FEW040 29/11 Q1012
TAF DAUH 292300Z 3000/3024 08012KT 8000 FEW046 SCT100 
     PROB30 
     TEMPO 3000/3006 4000 HZ 
     PROB40 
     TEMPO 3008/3014 25015G25KT 4000 -TSRA FEW033CB 
     PROB30 
     TEMPO 3009/3014 25015G25KT 3000 DRSA 
     BECMG 3014/3016 35010KT
       
DAAP 301000Z 30018KT 5000 DRSA NSC 36/09 Q1017
TAF DAAP 300800Z 3009/3018 35012KT 6000 FEW046 SCT100 
     TEMPO 3009/3012 3000 HZ 
     PROB30 
     TEMPO 3012/3015 FEW040CB
       
DAUZ 301000Z 28016G26KT 4000 DRSA NSC 35/06 Q1015
TAF DAUZ 300500Z 3006/0106 27010KT 8000 FEW046 SCT100 
     TEMPO 3009/3018 29020KT 3000 DRSA 
     PROB30 
     TEMPO 3010/3016 29020G30KT 1500 BLSA FEW40CB 
     BECMG 3021/3024 VRB02KT
       
TAF AMD DAUI 300854Z 3008/0106 28018KT 8000 STC046 SCT100 
     PROB40 
     TEMPO 3008/3014 28020G30KT 2000 DRSA 
     PROB30 
     TEMPO 3008/3012 FEW040CB 
     BECMG 3018/3021 28008KT
       
DAAV 301000Z 32005KT 9999 FEW023 20/14 Q1015
TAF COR DAAV 300800Z 3006/0106 24005KT 9999 FEW020 SCT033 
     BECMG 3012/3014 05012KT 
     PROB40 
     TEMPO 3013/3019 FEW026CB 
     PROB30 
     TEMPO 3014/3018 5000 -TSRA
       
DAUL 300900Z 00000KT CAVOK 25/08 Q1016
TAF DAUL 300800Z 3009/3018 02014KT CAVOK
       
DAOV 301000Z 27005KT 9999 SCT026 FEW030TCU SCT033 21/11 Q1017
TAF DAOV 300800Z 3009/3018 VRB02KT 9999 FEW030 BKN033 
     BECMG 3010/3012 31012KT 9999 FEW033
       
DAAY 301000Z 30010KT 9999 SCT030 19/07 Q1021
TAF DAAY 300800Z 3009/3018 22010KT 9999 FEW030 
     BECMG 3012/3014 32012KT
       
DAOO 301000Z 23008KT 9999 FEW026 SCT030 21/14 Q1017
TAF DAOO 300500Z 3006/0106 VRB02KT 9999 BKN030 
     PROB30 
     TEMPO 3006/3010 -TSRA SCT030 FEW030CB SCT100 
     BECMG 3008/3011 26015KT
       
DAOL 301000Z 25014KT 8000 FEW023TCU SCT026 21/14 Q1017
DAUU 301000Z 01016KT 6000 FEW046 SCT233 28/09 Q1012
TAF DAUU 300800Z 3009/3018 09012KT 7000 FEW046 
     PROB40 
     TEMPO 3009/3012 24015G25KT 5000 -TSRA FEW040CB 
     PROB30 
     TEMPO 3009/3011 24015G25KT 3000 DRSA
       
DAAS 301000Z 30010KT 9999 SCT030 19/08 Q1017
TAF COR DAAS 300800Z 3006/0106 23005KT 9999 FEW020 SCT033 
     BECMG 3012/3014 04012KT 
     TEMPO 3013/3019 FEW026CB 
     TEMPO 3014/3018 5000 -TSRA
       
DAAT 301000Z 12018KT 8000 NSC 35/// Q1022
TAF DAAT 300500Z 3006/0106 06010KT 8000 NSC 
     BECMG 3007/3008 16015KT 
     PROB40 
     TEMPO 3008/3013 16015G25KT 5000 DRSA 
     BECMG 3013/3015 19015KT 
     PROB30 
     TEMPO 3015/3020 SCT046TCU 
     BECMG 3020/3023 VRB02KT
       
DABS 301000Z 28004KT 9999 FEW040 SCT233 21/11 Q1016
TAF COR DABS 300800Z 3006/0106 10004KT 9999 FEW023 SCT033 
     BECMG 3012/3014 34012KT 
     TEMPO 3013/3020 FEW026CB 
     TEMPO 3014/3019 5000 -TSRA
       
DAOB 301000Z 29011KT 9999 BKN023 18/11 Q1018
TAF DAOB 300500Z 3006/0106 VRB02KT 9999 SCT023 
     BECMG 3008/3011 31014KT
       
DAFH 301000Z 07012KT CAVOK 25/08 Q1017
TAF DAFH 300800Z 3009/3018 05010KT CAVOK 
     TEMPO 3009/3013 05020KT
       
DAUT 301000Z 01006KT 8000 NSC 35/07 Q1013
TAF DAUT 300800Z 3009/3018 28015KT 8000 FEW046 SCT100 
     PROB30 
     TEMPO 3009/3012 3000 HZ
       
DAOF 301000Z 34006KT 9999 SCT046 SCT100 23/08 Q1016
TAF DAOF 300800Z 3009/3018 30015KT 9999 SCT046 SCT100
       
DAON 301000Z 24004KT 9999 SCT026 21/13 Q1018
TAF DAON 300500Z 3006/0106 VRB02KT 9999 SCT026 
     PROB30 
     TEMPO 3006/3010 -TSRA SCT030 FEW030CB SCT100 
     BECMG 3009/3012 35015KT 
     BECMG 3018/3021 VRB02KT
       
DAUK 301000Z 10007KT 8000 SCT040 27/13 Q1013
TAF DAUK 300800Z 3009/3018 08012KT 7000 FEW040 
     PROB30 
     TEMPO 3009/3009 3000 HZ